Historie AUP a zpráv METAR Praha-Ruzyně z 12:00 UTC

Datum: 28-03-2020 / Vyber datum:
LKPR 281200Z 33010KT CAVOK 15/M01 Q1016 NOSIG
Prostor Spodní hranice Horní hranice Od Do
TRA62 3000FT/AMSL F245 08:00 15:00